Terminal Aerodrome Forecast
Issued by NWS Mt. Holly, NJ

Home | Current Version | Previous Version | Text Only | Print | Product List | Glossary On
Versions: 1 2 3 4 5 6 7 8 9 10 11 12 13 14 15 16 17 18 19 20 21 22 23 24 25 26 27 28
000
FTUS41 KPHI 140500
TAFRDG
TAF
KRDG 140537Z 1406/1506 19004KT P6SM BKN015
     FM140700 19003KT 4SM BR BKN015
     FM140900 VRB03KT 2SM BR BKN015
      TEMPO 1409/1412 1/2SM FG OVC007
     FM141400 21005KT P6SM SCT020 BKN050
     FM141800 22008KT P6SM SHRA BKN040
      TEMPO 1421/1424 3SM TSRA BKN025CB
     FM150300 20004KT 4SM BR SCT040 BKN120=

USA.gov is the U.S. government's official web portal to all federal, state and local government web resources and services.